Time;durP1;ratioP1;P1;durP2;ratioP2;P2;SDS_P1;SDS_P2;PMS_P1;PMS_P2;Temp;Humidity;BMP_temperature;BMP_pressure;BME280_temperature;BME280_humidity;BME280_pressure;Samples;Min_cycle;Max_cycle;Signal;HPM_P1;HPM_P2
2022/11/13 00:02:43;;;;;;;5.63;2.93;;;13.20;99.90;;;;;;7501580;77;26299;-58
2022/11/13 00:12:45;;;;;;;6.50;2.73;;;13.20;99.90;;;;;;7514539;77;26285;-58
2022/11/13 00:22:48;;;;;;;3.83;2.43;;;13.10;99.90;;;;;;7560212;77;27169;-58
2022/11/13 00:32:50;;;;;;;3.47;2.60;;;13.10;99.90;;;;;;7523016;77;26362;-59
2022/11/13 00:42:53;;;;;;;3.13;2.57;;;13.10;99.90;;;;;;7500658;77;26884;-58
2022/11/13 00:52:55;;;;;;;3.80;2.80;;;13.20;99.90;;;;;;7561923;78;26289;-58
2022/11/13 01:02:59;;;;;;;3.93;2.73;;;13.10;99.90;;;;;;7523362;77;26366;-58
2022/11/13 01:13:01;;;;;;;3.03;2.40;;;13.20;99.90;;;;;;7481777;77;26677;-59
2022/11/13 01:23:04;;;;;;;5.27;2.43;;;13.10;99.90;;;;;;7490738;77;26894;-57
2022/11/13 01:33:06;;;;;;;3.43;2.43;;;13.10;99.90;;;;;;7523867;77;26371;-62
2022/11/13 01:43:23;;;;;;;3.10;2.60;;;13.20;99.90;;;;;;7507352;77;26293;-58
2022/11/13 01:53:27;;;;;;;5.40;3.10;;;13.20;99.90;;;;;;7543752;77;26276;-59
2022/11/13 02:03:29;;;;;;;2.60;2.20;;;13.20;99.90;;;;;;7532419;77;26863;-58
2022/11/13 02:13:33;;;;;;;3.80;2.23;;;13.20;99.90;;;;;;7514010;77;26314;-59
2022/11/13 02:23:38;;;;;;;3.97;2.77;;;13.20;99.90;;;;;;7518282;77;26272;-59
2022/11/13 02:33:41;;;;;;;4.20;2.43;;;13.20;99.90;;;;;;7515137;77;26406;-59
2022/11/13 02:43:43;;;;;;;3.33;2.33;;;13.20;99.90;;;;;;7539174;77;26886;-59
2022/11/13 02:53:46;;;;;;;2.40;2.20;;;13.10;99.90;;;;;;7549004;77;26427;-59
2022/11/13 03:03:48;;;;;;;3.83;2.60;;;13.10;99.90;;;;;;7525796;77;27084;-59
2022/11/13 03:13:51;;;;;;;2.80;1.97;;;13.10;99.90;;;;;;7526708;77;26312;-59
2022/11/13 03:23:54;;;;;;;3.30;2.23;;;13.20;99.90;;;;;;7547917;77;26786;-59
2022/11/13 03:33:57;;;;;;;3.50;2.53;;;13.00;99.90;;;;;;7535899;77;26386;-59
2022/11/13 03:43:59;;;;;;;3.27;1.97;;;13.10;99.90;;;;;;7534004;77;26370;-59
2022/11/13 03:54:02;;;;;;;2.93;2.30;;;13.10;99.90;;;;;;7540663;77;26363;-58
2022/11/13 04:04:04;;;;;;;3.07;2.03;;;13.00;99.90;;;;;;7529988;77;26811;-59
2022/11/13 04:14:07;;;;;;;2.13;1.90;;;13.00;99.90;;;;;;7561077;77;26319;-59
2022/11/13 04:24:10;;;;;;;2.33;2.10;;;13.10;99.90;;;;;;7541962;77;26315;-60
2022/11/13 04:34:13;;;;;;;2.40;2.03;;;12.90;99.90;;;;;;7530224;77;26300;-59
2022/11/13 04:44:15;;;;;;;2.70;2.03;;;12.90;99.90;;;;;;7536664;77;26347;-59
2022/11/13 04:54:18;;;;;;;3.00;2.03;;;13.00;99.90;;;;;;7532905;77;26311;-58
2022/11/13 05:04:21;;;;;;;2.20;1.80;;;13.00;99.90;;;;;;7518417;77;26275;-58
2022/11/13 05:14:23;;;;;;;3.60;2.53;;;13.00;99.90;;;;;;7553311;77;26293;-59
2022/11/13 05:24:26;;;;;;;2.37;1.87;;;12.90;99.90;;;;;;7528816;77;26265;-59
2022/11/13 05:34:28;;;;;;;2.33;1.83;;;12.90;99.90;;;;;;7554340;78;26309;-59
2022/11/13 05:44:31;;;;;;;3.50;2.03;;;13.00;99.90;;;;;;7526233;77;26315;-58
2022/11/13 05:54:33;;;;;;;2.10;1.53;;;13.00;99.90;;;;;;7525534;77;26359;-59
2022/11/13 06:04:36;;;;;;;2.10;1.90;;;12.90;99.90;;;;;;7564245;78;26787;-59
2022/11/13 06:14:38;;;;;;;2.50;1.83;;;13.00;99.90;;;;;;7555572;77;26328;-59
2022/11/13 06:24:41;;;;;;;3.00;2.20;;;13.10;99.90;;;;;;7567332;77;26790;-58
2022/11/13 06:34:43;;;;;;;2.67;2.10;;;13.00;99.90;;;;;;7566218;77;26359;-59
2022/11/13 06:44:46;;;;;;;2.13;1.63;;;12.90;99.90;;;;;;7556967;77;26273;-57
2022/11/13 06:54:48;;;;;;;6.13;3.73;;;13.00;99.90;;;;;;7561483;77;26759;-59
2022/11/13 07:04:51;;;;;;;4.30;2.53;;;12.90;99.90;;;;;;7522756;77;26408;-59
2022/11/13 07:14:53;;;;;;;4.10;2.50;;;13.00;99.90;;;;;;7560782;77;26273;-58
2022/11/13 07:24:57;;;;;;;4.27;2.77;;;12.80;99.90;;;;;;7536826;77;26375;-59
2022/11/13 07:34:59;;;;;;;3.50;2.17;;;12.90;99.90;;;;;;7527548;77;26813;-58
2022/11/13 07:45:02;;;;;;;3.67;2.33;;;12.90;99.90;;;;;;7506131;77;26292;-56
2022/11/13 07:55:05;;;;;;;4.27;2.30;;;12.80;99.90;;;;;;7515501;77;26351;-57
2022/11/13 08:05:08;;;;;;;4.20;2.10;;;12.90;99.90;;;;;;7550166;77;26273;-57
2022/11/13 08:15:11;;;;;;;5.73;2.43;;;12.90;99.90;;;;;;7544885;77;26368;-55
2022/11/13 08:25:13;;;;;;;5.10;2.17;;;12.90;99.90;;;;;;7512838;77;26278;-57
2022/11/13 08:35:16;;;;;;;4.13;2.23;;;13.00;99.90;;;;;;7522123;77;26266;-57
2022/11/13 08:45:19;;;;;;;5.57;2.87;;;13.10;99.90;;;;;;7542862;77;26360;-57
2022/11/13 08:55:22;;;;;;;5.57;3.00;;;13.30;99.90;;;;;;7524987;77;26323;-57
2022/11/13 09:05:26;;;;;;;8.07;3.57;;;13.50;99.90;;;;;;7525191;77;26275;-57
2022/11/13 09:15:30;;;;;;;6.77;3.27;;;13.70;99.90;;;;;;7508136;77;26305;-57
2022/11/13 09:25:34;;;;;;;7.00;3.70;;;13.60;99.90;;;;;;7527320;77;26368;-58
2022/11/13 09:35:37;;;;;;;8.47;3.93;;;13.80;99.90;;;;;;7530348;77;26269;-56
2022/11/13 09:45:41;;;;;;;7.93;4.10;;;14.00;99.90;;;;;;7527778;77;26309;-57
